createdAt,value
2018-09-19T00:00:16.851Z,12.50
2018-09-19T00:02:45.328Z,7.20
2018-09-19T00:05:16.677Z,11.60
2018-09-19T00:07:45.494Z,12.23
2018-09-19T00:10:14.972Z,11.43
2018-09-19T00:12:44.150Z,13.70
2018-09-19T00:15:13.630Z,11.20
2018-09-19T00:17:43.370Z,11.37
2018-09-19T00:20:12.152Z,10.30
2018-09-19T00:22:41.418Z,13.07
2018-09-19T00:25:11.118Z,12.07
2018-09-19T00:27:40.665Z,12.37
2018-09-19T00:30:09.492Z,10.70
2018-09-19T00:32:37.933Z,10.93
2018-09-19T00:35:06.406Z,15.03
2018-09-19T00:37:35.129Z,13.73
2018-09-19T00:40:03.630Z,10.03
2018-09-19T00:42:32.095Z,11.53
2018-09-19T00:45:00.533Z,14.93
2018-09-19T00:47:28.993Z,13.50
2018-09-19T00:49:57.502Z,12.73
2018-09-19T00:52:25.979Z,10.00
2018-09-19T00:54:54.486Z,14.70
2018-09-19T00:57:22.971Z,12.03
2018-09-19T00:59:51.451Z,13.30
2018-09-19T01:02:19.915Z,12.47
2018-09-19T01:04:48.787Z,13.83
2018-09-19T01:07:17.294Z,14.70
2018-09-19T01:09:45.763Z,14.50
2018-09-19T01:12:14.203Z,10.70
2018-09-19T01:14:42.709Z,13.33
2018-09-19T01:17:11.157Z,14.60
2018-09-19T01:19:39.631Z,14.53
2018-09-19T01:22:08.084Z,11.50
2018-09-19T01:24:36.566Z,12.93
2018-09-19T01:27:05.291Z,13.30
2018-09-19T01:29:33.792Z,14.37
2018-09-19T01:32:02.237Z,11.97
2018-09-19T01:34:30.722Z,13.03
2018-09-19T01:36:59.193Z,14.07
2018-09-19T01:39:27.636Z,15.17
2018-09-19T01:41:56.123Z,11.30
2018-09-19T01:44:24.597Z,13.70
2018-09-19T01:46:53.078Z,12.37
2018-09-19T01:49:21.582Z,13.97
2018-09-19T01:51:53.254Z,13.27
2018-09-19T01:54:23.102Z,13.27
2018-09-19T01:56:51.638Z,13.73
2018-09-19T01:59:20.124Z,16.40
2018-09-19T02:01:48.740Z,11.27
2018-09-19T02:04:17.553Z,16.03
2018-09-19T02:06:46.085Z,10.83
2018-09-19T02:09:14.528Z,15.03
2018-09-19T02:11:43.395Z,12.00
2018-09-19T02:14:12.801Z,13.47
2018-09-19T02:16:41.577Z,15.57
2018-09-19T02:19:10.150Z,16.17
2018-09-19T02:21:38.609Z,11.03
2018-09-19T02:24:07.206Z,10.87
2018-09-19T02:26:35.678Z,12.63
2018-09-19T02:29:04.166Z,15.07
2018-09-19T02:31:32.650Z,12.90
2018-09-19T02:34:01.181Z,12.73
2018-09-19T02:36:29.701Z,14.03
2018-09-19T02:38:59.028Z,12.73
2018-09-19T02:41:27.497Z,14.07
2018-09-19T02:43:55.965Z,13.03
2018-09-19T02:46:24.425Z,14.67
2018-09-19T02:48:52.964Z,13.03
2018-09-19T02:51:21.470Z,15.83
2018-09-19T02:53:49.935Z,19.17
2018-09-19T02:56:18.419Z,12.27
2018-09-19T02:58:46.934Z,11.20
2018-09-19T03:01:15.380Z,18.50
2018-09-19T03:03:43.866Z,15.23
2018-09-19T03:06:12.313Z,15.17
2018-09-19T03:08:40.758Z,20.93
2018-09-19T03:11:09.299Z,12.83
2018-09-19T03:13:37.781Z,14.47
2018-09-19T03:16:06.265Z,14.27
2018-09-19T03:18:34.710Z,17.80
2018-09-19T03:21:03.216Z,14.00
2018-09-19T03:23:31.695Z,16.37
2018-09-19T03:26:00.175Z,17.60
2018-09-19T03:28:28.606Z,14.83
2018-09-19T03:30:57.073Z,18.63
2018-09-19T03:33:25.588Z,16.67
2018-09-19T03:35:54.097Z,13.13
2018-09-19T03:38:22.576Z,15.83
2018-09-19T03:40:51.052Z,13.03
2018-09-19T03:43:19.694Z,13.63
2018-09-19T03:45:48.149Z,12.63
2018-09-19T03:48:16.699Z,13.30
2018-09-19T03:50:45.284Z,15.80
2018-09-19T03:53:13.821Z,15.17
2018-09-19T03:55:42.269Z,13.67
2018-09-19T03:58:10.910Z,13.90
2018-09-19T04:00:39.325Z,19.17
2018-09-19T04:03:07.758Z,17.20
2018-09-19T04:05:36.206Z,10.80
2018-09-19T04:08:04.675Z,14.27
2018-09-19T04:10:33.226Z,16.23
2018-09-19T04:13:01.702Z,14.73
2018-09-19T04:15:30.298Z,16.77
2018-09-19T04:17:58.830Z,14.90
2018-09-19T04:20:27.202Z,16.90
2018-09-19T04:22:55.689Z,12.57
2018-09-19T04:25:24.198Z,17.43
2018-09-19T04:27:52.675Z,19.13
2018-09-19T04:30:21.134Z,17.27
2018-09-19T04:32:49.651Z,20.53
2018-09-19T04:35:18.101Z,17.07
2018-09-19T04:37:46.591Z,16.27
2018-09-19T04:40:15.074Z,13.90
2018-09-19T04:42:43.518Z,19.50
2018-09-19T04:45:11.996Z,17.63
2018-09-19T04:47:40.517Z,16.00
2018-09-19T04:50:08.992Z,17.47
2018-09-19T04:52:37.441Z,14.27
2018-09-19T04:55:06.544Z,14.07
2018-09-19T04:57:34.986Z,18.23
2018-09-19T05:00:03.526Z,20.13
2018-09-19T05:02:31.956Z,19.40
2018-09-19T05:05:00.411Z,18.70
2018-09-19T05:07:28.943Z,18.27
2018-09-19T05:09:57.345Z,18.00
2018-09-19T05:12:25.792Z,15.17
2018-09-19T05:14:54.309Z,15.40
2018-09-19T05:17:22.785Z,19.87
2018-09-19T05:19:51.237Z,16.93
2018-09-19T05:22:19.703Z,13.87
2018-09-19T05:24:48.219Z,16.33
2018-09-19T05:27:16.685Z,14.33
2018-09-19T05:29:45.652Z,17.00
2018-09-19T05:32:14.100Z,15.17
2018-09-19T05:34:42.556Z,13.67
2018-09-19T05:37:11.032Z,12.80
2018-09-19T05:39:39.618Z,14.73
2018-09-19T05:42:08.093Z,14.27
2018-09-19T05:44:36.648Z,13.53
2018-09-19T05:47:05.198Z,13.70
2018-09-19T05:49:33.644Z,16.77
2018-09-19T05:52:02.123Z,16.90
2018-09-19T05:54:30.612Z,9.57
2018-09-19T05:56:59.061Z,11.93
2018-09-19T05:59:27.614Z,11.33
2018-09-19T06:01:56.147Z,11.83
2018-09-19T06:04:24.593Z,12.33
2018-09-19T06:06:53.170Z,18.30
2018-09-19T06:09:21.625Z,18.93
2018-09-19T06:11:50.087Z,15.67
2018-09-19T06:14:18.580Z,11.17
2018-09-19T06:16:47.045Z,14.20
2018-09-19T06:19:15.499Z,12.80
2018-09-19T06:21:44.677Z,14.03
2018-09-19T06:24:13.151Z,11.40
2018-09-19T06:26:41.609Z,14.43
2018-09-19T06:29:10.057Z,9.17
2018-09-19T06:31:38.563Z,12.83
2018-09-19T06:34:07.024Z,9.77
2018-09-19T06:36:35.562Z,11.67
2018-09-19T06:39:04.904Z,13.83
2018-09-19T06:41:33.354Z,11.57
2018-09-19T06:44:01.825Z,9.50
2018-09-19T06:46:30.297Z,16.20
2018-09-19T06:48:58.734Z,12.20
2018-09-19T06:51:27.309Z,12.40
2018-09-19T06:53:56.196Z,11.53
2018-09-19T06:56:24.654Z,12.83
2018-09-19T06:58:53.146Z,10.17
2018-09-19T07:01:21.769Z,10.67
2018-09-19T07:03:50.270Z,9.00
2018-09-19T07:06:18.858Z,13.03
2018-09-19T07:08:47.544Z,10.37
2018-09-19T07:11:15.988Z,10.87
2018-09-19T07:13:44.431Z,10.83
2018-09-19T07:16:12.933Z,11.27
2018-09-19T07:18:41.433Z,9.37
2018-09-19T07:21:09.904Z,8.10
2018-09-19T07:23:38.457Z,8.17
2018-09-19T07:26:07.099Z,8.70
2018-09-19T07:28:35.536Z,12.43
2018-09-19T07:31:04.028Z,13.53
2018-09-19T07:33:32.542Z,12.87
2018-09-19T07:36:01.879Z,11.17
2018-09-19T07:38:30.340Z,8.97
2018-09-19T07:40:58.794Z,7.77
2018-09-19T07:43:27.290Z,9.57
2018-09-19T07:45:55.858Z,10.93
2018-09-19T07:48:24.392Z,9.37
2018-09-19T07:50:52.813Z,8.80
2018-09-19T07:53:21.296Z,10.83
2018-09-19T07:55:49.736Z,13.37
2018-09-19T07:58:18.213Z,12.97
2018-09-19T08:00:46.758Z,10.27
2018-09-19T08:03:15.160Z,11.13
2018-09-19T08:05:43.939Z,10.30
2018-09-19T08:08:12.392Z,8.93
2018-09-19T08:10:40.824Z,9.53
2018-09-19T08:13:09.995Z,10.23
2018-09-19T08:15:38.436Z,10.13
2018-09-19T08:18:06.979Z,8.63
2018-09-19T08:20:35.441Z,10.23
2018-09-19T08:23:03.912Z,11.07
2018-09-19T08:25:32.458Z,8.50
2018-09-19T08:28:01.088Z,9.17
2018-09-19T08:30:30.534Z,7.03
2018-09-19T08:32:59.224Z,11.10
2018-09-19T08:35:28.028Z,9.87
2018-09-19T08:37:56.598Z,7.97
2018-09-19T08:40:25.178Z,8.83
2018-09-19T08:42:53.653Z,8.67
2018-09-19T08:45:22.077Z,8.60
2018-09-19T08:47:50.566Z,7.20
2018-09-19T08:50:19.032Z,8.90
2018-09-19T08:52:47.570Z,7.63
2018-09-19T08:55:16.102Z,6.07
2018-09-19T08:57:44.638Z,7.80
2018-09-19T09:00:13.093Z,8.67
2018-09-19T09:02:41.592Z,8.73
2018-09-19T09:05:10.083Z,8.97
2018-09-19T09:07:38.558Z,7.00
2018-09-19T09:10:07.654Z,7.33
2018-09-19T09:12:36.150Z,6.43
2018-09-19T09:15:04.710Z,5.40
2018-09-19T09:17:33.186Z,8.63
2018-09-19T09:20:01.878Z,6.83
2018-09-19T09:22:30.203Z,6.17
2018-09-19T09:24:59.551Z,8.43
2018-09-19T09:27:28.934Z,4.53
2018-09-19T09:29:57.318Z,9.03
2018-09-19T09:32:25.911Z,4.80
2018-09-19T09:34:54.366Z,8.57
2018-09-19T09:37:22.805Z,4.80
2018-09-19T09:39:51.281Z,12.03
2018-09-19T09:42:19.731Z,8.17
2018-09-19T09:44:48.178Z,6.10
2018-09-19T09:47:16.685Z,7.83
2018-09-19T09:49:45.138Z,5.43
2018-09-19T09:52:14.363Z,8.80
2018-09-19T09:54:42.840Z,7.20
2018-09-19T09:57:11.330Z,13.00
2018-09-19T09:59:39.800Z,14.40
2018-09-19T10:02:08.381Z,10.13
2018-09-19T10:04:36.878Z,5.80
2018-09-19T10:07:05.800Z,6.77
2018-09-19T10:09:34.248Z,6.47
2018-09-19T10:12:02.785Z,5.60
2018-09-19T10:14:31.350Z,6.40
2018-09-19T10:16:59.778Z,5.93
2018-09-19T10:19:28.249Z,6.33
2018-09-19T10:21:56.787Z,7.83
2018-09-19T10:24:25.228Z,8.80
2018-09-19T10:26:53.706Z,7.40
2018-09-19T10:29:22.170Z,7.17
2018-09-19T10:31:50.604Z,5.73
2018-09-19T10:34:19.027Z,8.33
2018-09-19T10:36:47.472Z,9.73
2018-09-19T10:39:15.985Z,7.30
2018-09-19T10:41:44.422Z,5.73
2018-09-19T10:44:12.862Z,7.70
2018-09-19T10:46:41.317Z,4.70
2018-09-19T10:49:09.763Z,8.53
2018-09-19T10:51:38.238Z,4.50
2018-09-19T10:54:06.684Z,8.90
2018-09-19T10:56:35.650Z,7.40
2018-09-19T10:59:04.120Z,4.57
2018-09-19T11:01:32.566Z,6.30
2018-09-19T11:04:01.071Z,8.27
2018-09-19T11:06:29.534Z,5.23
2018-09-19T11:08:58.001Z,6.67
2018-09-19T11:11:26.455Z,6.73
2018-09-19T11:13:55.009Z,5.60
2018-09-19T11:16:23.472Z,6.13
2018-09-19T11:18:51.937Z,5.20
2018-09-19T11:21:20.378Z,8.03
2018-09-19T11:23:48.825Z,4.60
2018-09-19T11:26:17.331Z,4.77
2018-09-19T11:28:45.733Z,5.90
2018-09-19T11:31:14.190Z,6.83
2018-09-19T11:33:42.697Z,8.57
2018-09-19T11:36:11.124Z,6.40
2018-09-19T11:38:39.569Z,5.30
2018-09-19T11:41:08.427Z,4.60
2018-09-19T11:43:37.230Z,4.60
2018-09-19T11:46:05.909Z,5.13
2018-09-19T11:48:34.491Z,15.93
2018-09-19T11:51:02.922Z,5.33
2018-09-19T11:53:31.385Z,8.00
2018-09-19T11:56:00.696Z,6.37
2018-09-19T11:58:30.254Z,7.83
2018-09-19T12:00:59.342Z,6.97
2018-09-19T12:03:28.549Z,4.20
2018-09-19T12:05:57.021Z,4.03
2018-09-19T12:08:25.553Z,7.70
2018-09-19T12:10:54.002Z,8.60
2018-09-19T12:13:22.441Z,6.40
2018-09-19T12:15:50.991Z,5.40
2018-09-19T12:18:19.436Z,6.53
2018-09-19T12:20:47.881Z,3.73
2018-09-19T12:23:16.332Z,8.57
2018-09-19T12:25:44.788Z,8.40
2018-09-19T12:28:13.214Z,5.77
2018-09-19T12:30:41.684Z,14.63
2018-09-19T12:33:10.195Z,6.40
2018-09-19T12:35:38.666Z,5.17
2018-09-19T12:38:07.209Z,5.70
2018-09-19T12:40:36.273Z,7.67
2018-09-19T12:43:04.881Z,7.23
2018-09-19T12:45:33.319Z,5.23
2018-09-19T12:48:01.778Z,5.70
2018-09-19T12:50:30.527Z,10.13
2018-09-19T12:52:58.970Z,4.27
2018-09-19T12:55:27.440Z,6.93
2018-09-19T12:57:55.902Z,7.70
2018-09-19T13:00:24.448Z,6.40
2018-09-19T13:02:52.924Z,6.97
2018-09-19T13:05:21.650Z,9.27
2018-09-19T13:07:50.159Z,10.57
2018-09-19T13:10:18.770Z,5.03
2018-09-19T13:12:47.200Z,7.83
2018-09-19T13:15:15.709Z,7.07
2018-09-19T13:17:44.185Z,5.27
2018-09-19T13:20:12.791Z,5.93
2018-09-19T13:22:41.270Z,6.90
2018-09-19T13:25:09.706Z,7.17
2018-09-19T13:27:38.192Z,6.17
2018-09-19T13:30:06.649Z,3.87
2018-09-19T13:32:35.101Z,8.10
2018-09-19T13:35:03.638Z,9.37
2018-09-19T13:37:32.080Z,6.87
2018-09-19T13:40:00.678Z,7.07
2018-09-19T13:42:29.212Z,10.73
2018-09-19T13:44:57.712Z,9.23
2018-09-19T13:47:26.379Z,8.90
2018-09-19T13:49:58.029Z,5.87
2018-09-19T13:52:26.471Z,5.50
2018-09-19T13:54:54.929Z,8.00
2018-09-19T13:57:23.878Z,5.90
2018-09-19T13:59:52.537Z,5.77
2018-09-19T14:02:21.005Z,10.93
2018-09-19T14:04:49.469Z,4.77
2018-09-19T14:07:18.005Z,11.73
2018-09-19T14:09:46.583Z,7.30
2018-09-19T14:12:15.209Z,5.37
2018-09-19T14:14:43.670Z,4.60
2018-09-19T14:17:12.123Z,9.63
2018-09-19T14:19:40.700Z,6.83
2018-09-19T14:22:09.341Z,8.93
2018-09-19T14:24:37.973Z,13.70
2018-09-19T14:27:06.802Z,15.60
2018-09-19T14:29:35.353Z,10.00
2018-09-19T14:32:04.034Z,7.57
2018-09-19T14:34:32.492Z,6.33
2018-09-19T14:37:01.554Z,6.20
2018-09-19T14:39:30.063Z,5.33
2018-09-19T14:41:58.517Z,5.90
2018-09-19T14:44:27.061Z,4.83
2018-09-19T14:46:55.494Z,6.40
2018-09-19T14:49:24.877Z,7.33
2018-09-19T14:51:53.391Z,17.03
2018-09-19T14:54:22.964Z,6.63
2018-09-19T14:56:51.499Z,5.03
2018-09-19T14:59:20.017Z,8.13
2018-09-19T15:01:48.841Z,5.00
2018-09-19T15:04:17.282Z,6.27
2018-09-19T15:06:45.759Z,7.97
2018-09-19T15:09:14.200Z,5.27
2018-09-19T15:11:42.776Z,3.30
2018-09-19T15:14:11.358Z,5.17
2018-09-19T15:16:39.835Z,5.07
2018-09-19T15:19:08.321Z,6.70
2018-09-19T15:21:36.764Z,5.77
2018-09-19T15:24:05.234Z,6.80
2018-09-19T15:26:33.710Z,4.93
2018-09-19T15:29:02.767Z,6.00
2018-09-19T15:31:31.679Z,6.57
2018-09-19T15:34:00.443Z,6.93
2018-09-19T15:36:28.946Z,3.43
2018-09-19T15:38:57.404Z,7.03
2018-09-19T15:41:26.011Z,5.87
2018-09-19T15:43:54.537Z,6.20
2018-09-19T15:46:23.025Z,6.77
2018-09-19T15:48:51.527Z,9.53
2018-09-19T15:51:20.174Z,4.53
2018-09-19T15:53:48.666Z,7.17
2018-09-19T15:56:17.140Z,4.40
2018-09-19T15:58:45.785Z,6.17
2018-09-19T16:01:14.364Z,8.07
2018-09-19T16:03:42.902Z,5.70
2018-09-19T16:06:11.610Z,5.23
2018-09-19T16:08:40.037Z,5.40
2018-09-19T16:11:08.697Z,5.97
2018-09-19T16:13:37.235Z,4.27
2018-09-19T16:16:05.709Z,6.27
2018-09-19T16:18:34.206Z,7.37
2018-09-19T16:21:02.692Z,9.83
2018-09-19T16:23:37.322Z,5.87
2018-09-19T16:26:05.796Z,8.10
2018-09-19T16:28:34.970Z,5.70
2018-09-19T16:31:03.506Z,9.87
2018-09-19T16:33:32.031Z,5.00
2018-09-19T16:36:00.522Z,7.87
2018-09-19T16:38:29.049Z,6.03
2018-09-19T16:40:57.599Z,6.33
2018-09-19T16:43:26.067Z,6.83
2018-09-19T16:45:54.629Z,8.30
2018-09-19T16:48:23.085Z,9.33
2018-09-19T16:50:51.554Z,9.87
2018-09-19T16:53:20.037Z,9.17
2018-09-19T16:55:50.584Z,5.33
2018-09-19T16:58:19.138Z,6.20
2018-09-19T17:00:47.654Z,6.13
2018-09-19T17:03:16.186Z,6.53
2018-09-19T17:05:44.700Z,4.17
2018-09-19T17:08:13.161Z,7.03
2018-09-19T17:10:42.027Z,7.93
2018-09-19T17:13:10.613Z,6.07
2018-09-19T17:15:39.239Z,4.20
2018-09-19T17:18:07.717Z,5.13
2018-09-19T17:20:36.236Z,7.33
2018-09-19T17:23:04.761Z,6.57
2018-09-19T17:25:33.277Z,5.50
2018-09-19T17:28:01.823Z,6.27
2018-09-19T17:30:30.349Z,7.50
2018-09-19T17:32:58.834Z,8.40
2018-09-19T17:35:27.343Z,6.03
2018-09-19T17:37:56.051Z,8.50
2018-09-19T17:40:27.055Z,7.37
2018-09-19T17:42:58.329Z,7.93
2018-09-19T17:45:31.381Z,8.87
2018-09-19T17:47:59.949Z,8.87
2018-09-19T17:50:28.474Z,7.97
2018-09-19T17:52:57.012Z,7.50
2018-09-19T17:55:25.662Z,9.73
2018-09-19T17:57:54.315Z,8.17
2018-09-19T18:00:22.891Z,9.13
2018-09-19T18:02:51.615Z,8.60
2018-09-19T18:05:41.406Z,12.50
2018-09-19T18:08:09.936Z,7.43
2018-09-19T18:10:38.469Z,8.77
2018-09-19T18:13:07.031Z,7.73
2018-09-19T18:15:35.577Z,8.97
2018-09-19T18:18:04.126Z,9.07
2018-09-19T18:20:32.734Z,6.53
2018-09-19T18:23:01.470Z,14.10
2018-09-19T18:25:30.006Z,12.73
2018-09-19T18:27:58.554Z,8.67
2018-09-19T18:30:27.286Z,11.13
2018-09-19T18:32:56.136Z,11.33
2018-09-19T18:35:26.017Z,7.33
2018-09-19T18:37:57.814Z,9.60
2018-09-19T18:40:29.338Z,8.23
2018-09-19T18:43:07.911Z,11.57
2018-09-19T18:45:39.756Z,11.83
2018-09-19T18:48:11.786Z,11.77
2018-09-19T18:50:40.253Z,12.50
2018-09-19T18:53:08.858Z,8.93
2018-09-19T18:55:37.484Z,8.00
2018-09-19T18:58:06.072Z,8.27
2018-09-19T19:00:34.715Z,10.07
2018-09-19T19:03:03.239Z,16.70
2018-09-19T19:05:31.769Z,17.37
2018-09-19T19:08:00.410Z,8.80
2018-09-19T19:10:34.534Z,9.03
2018-09-19T19:13:10.474Z,9.17
2018-09-19T19:15:50.452Z,9.23
2018-09-19T19:18:19.632Z,14.37
2018-09-19T19:20:54.323Z,9.77
2018-09-19T19:23:25.783Z,10.73
2018-09-19T19:25:57.926Z,12.73
2018-09-19T19:28:28.667Z,13.73
2018-09-19T19:30:57.246Z,14.53
2018-09-19T19:33:25.809Z,8.27
2018-09-19T19:35:54.366Z,11.90
2018-09-19T19:38:22.882Z,11.40
2018-09-19T19:40:51.451Z,15.00
2018-09-19T19:43:20.002Z,12.83
2018-09-19T19:45:48.513Z,9.43
2018-09-19T19:48:17.031Z,9.87
2018-09-19T19:50:45.563Z,15.47
2018-09-19T19:53:14.282Z,16.47
2018-09-19T19:55:42.802Z,10.63
2018-09-19T19:58:11.363Z,13.63
2018-09-19T20:00:39.919Z,13.30
2018-09-19T20:03:08.463Z,14.97
2018-09-19T20:05:37.298Z,10.33
2018-09-19T20:08:06.285Z,15.60
2018-09-19T20:10:35.445Z,11.13
2018-09-19T20:13:04.124Z,14.70
2018-09-19T20:15:32.647Z,11.90
2018-09-19T20:18:01.167Z,13.17
2018-09-19T20:20:29.667Z,11.10
2018-09-19T20:22:58.217Z,10.50
2018-09-19T20:25:26.686Z,9.83
2018-09-19T20:27:55.241Z,10.97
2018-09-19T20:30:23.761Z,11.83
2018-09-19T20:32:52.189Z,9.43
2018-09-19T20:35:20.684Z,14.63
2018-09-19T20:37:49.302Z,13.63
2018-09-19T20:40:17.823Z,13.60
2018-09-19T20:42:46.353Z,10.67
2018-09-19T20:45:14.817Z,8.70
2018-09-19T20:47:43.295Z,12.33
2018-09-19T20:50:11.756Z,10.27
2018-09-19T20:52:40.217Z,13.63
2018-09-19T20:55:08.705Z,11.20
2018-09-19T20:57:37.178Z,11.17
2018-09-19T21:00:05.864Z,7.80
2018-09-19T21:02:34.298Z,8.53
2018-09-19T21:05:03.082Z,11.67
2018-09-19T21:07:31.605Z,11.23
2018-09-19T21:10:00.090Z,10.27
2018-09-19T21:12:28.700Z,11.83
2018-09-19T21:14:57.262Z,12.77
2018-09-19T21:17:26.110Z,16.63
2018-09-19T21:19:54.819Z,11.13
2018-09-19T21:22:23.486Z,12.00
2018-09-19T21:24:51.929Z,15.00
2018-09-19T21:27:20.849Z,14.37
2018-09-19T21:29:49.449Z,10.20
2018-09-19T21:32:18.536Z,14.47
2018-09-19T21:34:47.443Z,17.20
2018-09-19T21:37:16.291Z,15.07
2018-09-19T21:39:44.991Z,11.30
2018-09-19T21:42:13.598Z,9.37
2018-09-19T21:44:42.685Z,12.90
2018-09-19T21:47:11.463Z,10.97
2018-09-19T21:49:39.996Z,13.27
2018-09-19T21:52:08.555Z,12.83
2018-09-19T21:54:37.150Z,10.73
2018-09-19T21:57:05.670Z,10.63
2018-09-19T21:59:35.300Z,9.73
2018-09-19T22:02:03.834Z,7.53
2018-09-19T22:04:32.402Z,9.43
2018-09-19T22:07:01.019Z,15.43
2018-09-19T22:09:29.505Z,12.53
2018-09-19T22:11:58.148Z,12.00
2018-09-19T22:14:26.764Z,8.70
2018-09-19T22:16:55.330Z,9.13
2018-09-19T22:19:25.134Z,10.37
2018-09-19T22:21:53.621Z,12.60
2018-09-19T22:24:22.178Z,9.63
2018-09-19T22:26:50.778Z,18.83
2018-09-19T22:29:20.722Z,10.70
2018-09-19T22:31:49.243Z,8.93
2018-09-19T22:34:17.814Z,15.60
2018-09-19T22:36:46.333Z,11.20
2018-09-19T22:39:14.857Z,12.63
2018-09-19T22:41:43.441Z,13.03
2018-09-19T22:44:12.013Z,10.33
2018-09-19T22:46:40.543Z,14.03
2018-09-19T22:49:09.065Z,14.67
2018-09-19T22:51:37.736Z,9.93
2018-09-19T22:54:06.462Z,10.70
2018-09-19T22:56:35.018Z,12.63
2018-09-19T22:59:03.573Z,16.77
2018-09-19T23:01:32.076Z,8.90
2018-09-19T23:04:00.696Z,12.83
2018-09-19T23:06:29.239Z,11.20
2018-09-19T23:08:57.865Z,8.73
2018-09-19T23:11:26.450Z,11.03
2018-09-19T23:13:55.017Z,11.63
2018-09-19T23:16:23.499Z,9.40
2018-09-19T23:18:52.000Z,14.97
2018-09-19T23:21:20.550Z,7.43
2018-09-19T23:23:49.279Z,11.53
2018-09-19T23:26:17.858Z,9.53
2018-09-19T23:28:46.458Z,11.40
2018-09-19T23:31:14.977Z,13.23
2018-09-19T23:33:43.469Z,15.10
2018-09-19T23:36:11.964Z,9.70
2018-09-19T23:38:40.494Z,9.03
2018-09-19T23:41:08.973Z,11.07
2018-09-19T23:43:37.462Z,9.43
2018-09-19T23:46:05.930Z,13.33
2018-09-19T23:48:34.408Z,10.10
2018-09-19T23:51:02.898Z,13.23
2018-09-19T23:53:31.873Z,9.93
2018-09-19T23:56:00.345Z,13.47
2018-09-19T23:58:29.689Z,9.23
